sensor_id;sensor_type;location;lat;lon;timestamp;pressure;altitude;pressure_sealevel;temperature
76541;BMP280;65385;55.772;37.658;2024-03-23T00:52:51;98780.28;;;3.56
76541;BMP280;65385;55.772;37.658;2024-03-23T00:53:51;98785.19;;;3.58
76541;BMP280;65385;55.772;37.658;2024-03-23T00:54:52;98782.88;;;3.56
76541;BMP280;65385;55.772;37.658;2024-03-23T00:55:52;98777.69;;;3.56
76541;BMP280;65385;55.772;37.658;2024-03-23T00:56:53;98785.47;;;3.56
76541;BMP280;65385;55.772;37.658;2024-03-23T00:57:54;98783.88;;;3.55
76541;BMP280;65385;55.772;37.658;2024-03-23T00:58:54;98774.78;;;3.53
76541;BMP280;65385;55.772;37.658;2024-03-23T00:59:55;98779.16;;;3.52
76541;BMP280;65385;55.772;37.658;2024-03-23T01:00:56;98771.63;;;3.51
76541;BMP280;65385;55.772;37.658;2024-03-23T01:01:56;98777.59;;;3.51
76541;BMP280;65385;55.772;37.658;2024-03-23T01:02:57;98777.59;;;3.51
76541;BMP280;65385;55.772;37.658;2024-03-23T01:03:57;98774.22;;;3.51
76541;BMP280;65385;55.772;37.658;2024-03-23T01:04:58;98770.63;;;3.52
76541;BMP280;65385;55.772;37.658;2024-03-23T01:06:00;98768.59;;;3.54
76541;BMP280;65385;55.772;37.658;2024-03-23T01:07:00;98766.81;;;3.54
76541;BMP280;65385;55.772;37.658;2024-03-23T01:08:01;98763.22;;;3.55
76541;BMP280;65385;55.772;37.658;2024-03-23T01:09:02;98765.56;;;3.57
76541;BMP280;65385;55.772;37.658;2024-03-23T01:10:03;98758.03;;;3.55
76541;BMP280;65385;55.772;37.658;2024-03-23T01:11:04;98762.97;;;3.57
76541;BMP280;65385;55.772;37.658;2024-03-23T01:12:05;98758.59;;;3.57
76541;BMP280;65385;55.772;37.658;2024-03-23T01:13:06;98756.03;;;3.57
76541;BMP280;65385;55.772;37.658;2024-03-23T01:14:06;98759.34;;;3.58
76541;BMP280;65385;55.772;37.658;2024-03-23T01:15:07;98759.13;;;3.59
76541;BMP280;65385;55.772;37.658;2024-03-23T01:16:08;98759.69;;;3.61
76541;BMP280;65385;55.772;37.658;2024-03-23T01:17:09;98747.78;;;3.60
76541;BMP280;65385;55.772;37.658;2024-03-23T01:18:09;98747.56;;;3.62
76541;BMP280;65385;55.772;37.658;2024-03-23T01:19:10;98745.75;;;3.62
76541;BMP280;65385;55.772;37.658;2024-03-23T01:20:11;98746.00;;;3.61
76541;BMP280;65385;55.772;37.658;2024-03-23T01:21:11;98755.53;;;3.60
76541;BMP280;65385;55.772;37.658;2024-03-23T01:22:12;98744.41;;;3.60
76541;BMP280;65385;55.772;37.658;2024-03-23T01:23:13;98740.03;;;3.60
76541;BMP280;65385;55.772;37.658;2024-03-23T01:24:13;98741.59;;;3.61
76541;BMP280;65385;55.772;37.658;2024-03-23T01:25:15;98743.75;;;3.64
76541;BMP280;65385;55.772;37.658;2024-03-23T01:26:15;98743.75;;;3.64
76541;BMP280;65385;55.772;37.658;2024-03-23T01:27:16;98742.16;;;3.63
76541;BMP280;65385;55.772;37.658;2024-03-23T01:28:16;98739.59;;;3.63
76541;BMP280;65385;55.772;37.658;2024-03-23T01:29:17;98738.00;;;3.62
76541;BMP280;65385;55.772;37.658;2024-03-23T01:30:18;98734.63;;;3.62
76541;BMP280;65385;55.772;37.658;2024-03-23T01:31:18;98738.00;;;3.62
76541;BMP280;65385;55.772;37.658;2024-03-23T01:32:19;98730.03;;;3.64
76541;BMP280;65385;55.772;37.658;2024-03-23T01:33:19;98732.63;;;3.64
76541;BMP280;65385;55.772;37.658;2024-03-23T01:34:20;98732.63;;;3.64
76541;BMP280;65385;55.772;37.658;2024-03-23T01:35:21;98732.38;;;3.65
76541;BMP280;65385;55.772;37.658;2024-03-23T01:36:21;98725.41;;;3.66
76541;BMP280;65385;55.772;37.658;2024-03-23T01:37:22;98720.47;;;3.64
76541;BMP280;65385;55.772;37.658;2024-03-23T01:38:22;98720.47;;;3.64
76541;BMP280;65385;55.772;37.658;2024-03-23T01:39:23;98722.03;;;3.65
76541;BMP280;65385;55.772;37.658;2024-03-23T01:40:24;98717.41;;;3.68
76541;BMP280;65385;55.772;37.658;2024-03-23T01:41:24;98722.81;;;3.66
76541;BMP280;65385;55.772;37.658;2024-03-23T01:42:25;98713.25;;;3.67
76541;BMP280;65385;55.772;37.658;2024-03-23T01:43:26;98719.44;;;3.65
76541;BMP280;65385;55.772;37.658;2024-03-23T01:44:27;98710.13;;;3.64
76541;BMP280;65385;55.772;37.658;2024-03-23T01:45:27;98717.91;;;3.64
76541;BMP280;65385;55.772;37.658;2024-03-23T01:46:28;98709.34;;;3.64
76541;BMP280;65385;55.772;37.658;2024-03-23T01:47:28;98708.56;;;3.63
76541;BMP280;65385;55.772;37.658;2024-03-23T01:48:29;98714.53;;;3.64
76541;BMP280;65385;55.772;37.658;2024-03-23T01:49:30;98702.63;;;3.63
76541;BMP280;65385;55.772;37.658;2024-03-23T01:50:31;98704.97;;;3.64
76541;BMP280;65385;55.772;37.658;2024-03-23T01:51:35;98707.56;;;3.64
76541;BMP280;65385;55.772;37.658;2024-03-23T01:52:36;98708.56;;;3.63
76541;BMP280;65385;55.772;37.658;2024-03-23T01:53:37;98707.56;;;3.64
76541;BMP280;65385;55.772;37.658;2024-03-23T01:54:37;98698.22;;;3.63
76541;BMP280;65385;55.772;37.658;2024-03-23T01:55:38;98701.81;;;3.62
76541;BMP280;65385;55.772;37.658;2024-03-23T01:56:40;98701.81;;;3.62
76541;BMP280;65385;55.772;37.658;2024-03-23T01:57:41;98707.00;;;3.62
76541;BMP280;65385;55.772;37.658;2024-03-23T01:58:42;98696.97;;;3.66
76541;BMP280;65385;55.772;37.658;2024-03-23T01:59:42;98694.16;;;3.68
76541;BMP280;65385;55.772;37.658;2024-03-23T02:00:45;98697.53;;;3.68
76541;BMP280;65385;55.772;37.658;2024-03-23T02:01:45;98693.69;;;3.71
76541;BMP280;65385;55.772;37.658;2024-03-23T02:02:47;98690.31;;;3.70
76541;BMP280;65385;55.772;37.658;2024-03-23T02:03:48;98690.56;;;3.69
76541;BMP280;65385;55.772;37.658;2024-03-23T02:04:49;98688.41;;;3.65
76541;BMP280;65385;55.772;37.658;2024-03-23T02:05:49;98688.41;;;3.65
76541;BMP280;65385;55.772;37.658;2024-03-23T02:06:50;98678.66;;;3.68
76541;BMP280;65385;55.772;37.658;2024-03-23T02:07:51;98684.38;;;3.70
76541;BMP280;65385;55.772;37.658;2024-03-23T02:08:51;98689.53;;;3.70
76541;BMP280;65385;55.772;37.658;2024-03-23T02:09:52;98675.03;;;3.69
76541;BMP280;65385;55.772;37.658;2024-03-23T02:10:53;98673.47;;;3.68
76541;BMP280;65385;55.772;37.658;2024-03-23T02:11:54;98674.50;;;3.67
76541;BMP280;65385;55.772;37.658;2024-03-23T02:12:55;98672.16;;;3.65
76541;BMP280;65385;55.772;37.658;2024-03-23T02:13:55;98671.13;;;3.66
76541;BMP280;65385;55.772;37.658;2024-03-23T02:14:56;98664.94;;;3.67
76541;BMP280;65385;55.772;37.658;2024-03-23T02:15:57;98666.72;;;3.67
76541;BMP280;65385;55.772;37.658;2024-03-23T02:16:57;98661.56;;;3.67
76541;BMP280;65385;55.772;37.658;2024-03-23T02:17:58;98664.16;;;3.67
76541;BMP280;65385;55.772;37.658;2024-03-23T02:18:58;98664.16;;;3.67
76541;BMP280;65385;55.772;37.658;2024-03-23T02:19:59;98657.19;;;3.67
76541;BMP280;65385;55.772;37.658;2024-03-23T02:21:00;98655.38;;;3.68
76541;BMP280;65385;55.772;37.658;2024-03-23T02:22:01;98654.38;;;3.69
76541;BMP280;65385;55.772;37.658;2024-03-23T02:23:02;98653.91;;;3.72
76541;BMP280;65385;55.772;37.658;2024-03-23T02:24:02;98659.34;;;3.75
76541;BMP280;65385;55.772;37.658;2024-03-23T02:25:06;98649.81;;;3.76
76541;BMP280;65385;55.772;37.658;2024-03-23T02:26:07;98643.06;;;3.75
76541;BMP280;65385;55.772;37.658;2024-03-23T02:27:08;98649.66;;;3.82
76541;BMP280;65385;55.772;37.658;2024-03-23T02:28:09;98647.78;;;3.78
76541;BMP280;65385;55.772;37.658;2024-03-23T02:29:09;98654.50;;;3.79
76541;BMP280;65385;55.772;37.658;2024-03-23T02:30:10;98640.00;;;3.78
76541;BMP280;65385;55.772;37.658;2024-03-23T02:31:11;98643.63;;;3.77
76541;BMP280;65385;55.772;37.658;2024-03-23T02:32:11;98649.34;;;3.79
76541;BMP280;65385;55.772;37.658;2024-03-23T02:33:12;98640.00;;;3.78
76541;BMP280;65385;55.772;37.658;2024-03-23T02:34:12;98640.00;;;3.78
76541;BMP280;65385;55.772;37.658;2024-03-23T02:35:13;98633.28;;;3.77
76541;BMP280;65385;55.772;37.658;2024-03-23T02:36:14;98630.69;;;3.77
76541;BMP280;65385;55.772;37.658;2024-03-23T02:37:14;98628.66;;;3.79
76541;BMP280;65385;55.772;37.658;2024-03-23T02:38:15;98629.69;;;3.78
76541;BMP280;65385;55.772;37.658;2024-03-23T02:39:15;98617.75;;;3.77
76541;BMP280;65385;55.772;37.658;2024-03-23T02:40:17;98618.53;;;3.77
76541;BMP280;65385;55.772;37.658;2024-03-23T02:41:17;98625.53;;;3.77
76541;BMP280;65385;55.772;37.658;2024-03-23T02:42:23;98622.94;;;3.77
76541;BMP280;65385;55.772;37.658;2024-03-23T02:43:23;98623.94;;;3.76
76541;BMP280;65385;55.772;37.658;2024-03-23T02:44:24;98622.94;;;3.77
76541;BMP280;65385;55.772;37.658;2024-03-23T02:45:24;98624.72;;;3.76
76541;BMP280;65385;55.772;37.658;2024-03-23T02:46:25;98611.25;;;3.74
76541;BMP280;65385;55.772;37.658;2024-03-23T02:47:25;98609.22;;;3.76
76541;BMP280;65385;55.772;37.658;2024-03-23T02:48:26;98613.59;;;3.76
76541;BMP280;65385;55.772;37.658;2024-03-23T02:49:27;98616.75;;;3.78
76541;BMP280;65385;55.772;37.658;2024-03-23T02:50:27;98605.91;;;3.81
76541;BMP280;65385;55.772;37.658;2024-03-23T02:51:28;98607.50;;;3.82
76541;BMP280;65385;55.772;37.658;2024-03-23T02:52:28;98608.03;;;3.84
76541;BMP280;65385;55.772;37.658;2024-03-23T02:53:29;98600.28;;;3.84
76541;BMP280;65385;55.772;37.658;2024-03-23T02:54:30;98597.72;;;3.84
76541;BMP280;65385;55.772;37.658;2024-03-23T02:55:30;98601.06;;;3.84
76541;BMP280;65385;55.772;37.658;2024-03-23T02:56:32;98593.88;;;3.86
76541;BMP280;65385;55.772;37.658;2024-03-23T02:57:33;98589.50;;;3.87
76541;BMP280;65385;55.772;37.658;2024-03-23T02:58:33;98588.16;;;3.84
76541;BMP280;65385;55.772;37.658;2024-03-23T02:59:34;98588.16;;;3.84
76541;BMP280;65385;55.772;37.658;2024-03-23T03:00:34;98585.56;;;3.84
76541;BMP280;65385;55.772;37.658;2024-03-23T03:01:35;98591.53;;;3.85
76541;BMP280;65385;55.772;37.658;2024-03-23T03:02:36;98583.28;;;3.88
76541;BMP280;65385;55.772;37.658;2024-03-23T03:03:37;98583.53;;;3.86
76541;BMP280;65385;55.772;37.658;2024-03-23T03:04:38;98582.75;;;3.86
76541;BMP280;65385;55.772;37.658;2024-03-23T03:05:39;98574.44;;;3.84
76541;BMP280;65385;55.772;37.658;2024-03-23T03:06:39;98573.19;;;3.86
76541;BMP280;65385;55.772;37.658;2024-03-23T03:07:41;98571.63;;;3.85
76541;BMP280;65385;55.772;37.658;2024-03-23T03:08:42;98570.34;;;3.88
76541;BMP280;65385;55.772;37.658;2024-03-23T03:09:42;98579.91;;;3.87
76541;BMP280;65385;55.772;37.658;2024-03-23T03:10:43;98570.34;;;3.88
76541;BMP280;65385;55.772;37.658;2024-03-23T03:11:43;98566.75;;;3.89
76541;BMP280;65385;55.772;37.658;2024-03-23T03:12:44;98566.22;;;3.87
76541;BMP280;65385;55.772;37.658;2024-03-23T03:13:44;98561.81;;;3.87
76541;BMP280;65385;55.772;37.658;2024-03-23T03:14:45;98559.00;;;3.89
76541;BMP280;65385;55.772;37.658;2024-03-23T03:15:45;98560.78;;;3.88
76541;BMP280;65385;55.772;37.658;2024-03-23T03:16:46;98556.41;;;3.89
76541;BMP280;65385;55.772;37.658;2024-03-23T03:17:46;98559.53;;;3.91
76541;BMP280;65385;55.772;37.658;2024-03-23T03:18:47;98560.31;;;3.91
76541;BMP280;65385;55.772;37.658;2024-03-23T03:19:47;98556.41;;;3.89
76541;BMP280;65385;55.772;37.658;2024-03-23T03:20:48;98561.56;;;3.89
76541;BMP280;65385;55.772;37.658;2024-03-23T03:21:49;98556.41;;;3.89
76541;BMP280;65385;55.772;37.658;2024-03-23T03:22:50;98553.03;;;3.88
76541;BMP280;65385;55.772;37.658;2024-03-23T03:23:50;98551.00;;;3.90
76541;BMP280;65385;55.772;37.658;2024-03-23T03:24:51;98554.38;;;3.91
76541;BMP280;65385;55.772;37.658;2024-03-23T03:25:52;98554.38;;;3.91
76541;BMP280;65385;55.772;37.658;2024-03-23T03:26:52;98550.78;;;3.92
76541;BMP280;65385;55.772;37.658;2024-03-23T03:27:53;98553.59;;;3.90
76541;BMP280;65385;55.772;37.658;2024-03-23T03:28:53;98546.63;;;3.91
76541;BMP280;65385;55.772;37.658;2024-03-23T03:29:54;98542.50;;;3.95
76541;BMP280;65385;55.772;37.658;2024-03-23T03:30:54;98543.81;;;3.97
76541;BMP280;65385;55.772;37.658;2024-03-23T03:31:55;98539.91;;;3.95
76541;BMP280;65385;55.772;37.658;2024-03-23T03:32:56;98539.63;;;3.91
76541;BMP280;65385;55.772;37.658;2024-03-23T03:33:56;98538.84;;;3.91
76541;BMP280;65385;55.772;37.658;2024-03-23T03:34:57;98540.88;;;3.89
76541;BMP280;65385;55.772;37.658;2024-03-23T03:35:57;98532.13;;;3.90
76541;BMP280;65385;55.772;37.658;2024-03-23T03:36:58;98533.13;;;3.89
76541;BMP280;65385;55.772;37.658;2024-03-23T03:37:59;98529.06;;;3.93
76541;BMP280;65385;55.772;37.658;2024-03-23T03:39:00;98528.50;;;3.91
76541;BMP280;65385;55.772;37.658;2024-03-23T03:40:03;98525.16;;;3.90
76541;BMP280;65385;55.772;37.658;2024-03-23T03:41:04;98521.78;;;3.90
76541;BMP280;65385;55.772;37.658;2024-03-23T03:42:06;98522.31;;;3.92
76541;BMP280;65385;55.772;37.658;2024-03-23T03:43:07;98524.13;;;3.91
76541;BMP280;65385;55.772;37.658;2024-03-23T03:44:08;98523.59;;;3.94
76541;BMP280;65385;55.772;37.658;2024-03-23T03:45:09;98520.00;;;3.95
76541;BMP280;65385;55.772;37.658;2024-03-23T03:46:09;98522.09;;;3.93
76541;BMP280;65385;55.772;37.658;2024-03-23T03:47:11;98520.78;;;3.96
76541;BMP280;65385;55.772;37.658;2024-03-23T03:48:12;98520.00;;;3.95
76541;BMP280;65385;55.772;37.658;2024-03-23T03:49:12;98513.59;;;3.98
76541;BMP280;65385;55.772;37.658;2024-03-23T03:50:13;98512.78;;;3.97
76541;BMP280;65385;55.772;37.658;2024-03-23T03:51:13;98516.41;;;3.96
76541;BMP280;65385;55.772;37.658;2024-03-23T03:52:14;98512.78;;;3.97
76541;BMP280;65385;55.772;37.658;2024-03-23T03:53:15;98512.78;;;3.97
76541;BMP280;65385;55.772;37.658;2024-03-23T03:54:15;98514.38;;;3.98
76541;BMP280;65385;55.772;37.658;2024-03-23T03:55:16;98503.25;;;3.98
76541;BMP280;65385;55.772;37.658;2024-03-23T03:56:16;98506.84;;;3.97
76541;BMP280;65385;55.772;37.658;2024-03-23T03:57:17;98501.66;;;3.97
76541;BMP280;65385;55.772;37.658;2024-03-23T03:58:18;98499.88;;;3.97
76541;BMP280;65385;55.772;37.658;2024-03-23T03:59:18;98494.47;;;3.99
76541;BMP280;65385;55.772;37.658;2024-03-23T04:00:20;98494.47;;;3.99
76541;BMP280;65385;55.772;37.658;2024-03-23T04:01:21;98493.97;;;4.02
76541;BMP280;65385;55.772;37.658;2024-03-23T04:02:21;98492.25;;;4.07
76541;BMP280;65385;55.772;37.658;2024-03-23T04:03:22;98485.50;;;4.06
76541;BMP280;65385;55.772;37.658;2024-03-23T04:04:22;98493.50;;;4.05
76541;BMP280;65385;55.772;37.658;2024-03-23T04:05:23;98493.50;;;4.05
76541;BMP280;65385;55.772;37.658;2024-03-23T04:06:24;98489.13;;;4.05
76541;BMP280;65385;55.772;37.658;2024-03-23T04:07:24;98481.13;;;4.07
76541;BMP280;65385;55.772;37.658;2024-03-23T04:08:25;98491.47;;;4.07
76541;BMP280;65385;55.772;37.658;2024-03-23T04:09:26;98483.47;;;4.09
76541;BMP280;65385;55.772;37.658;2024-03-23T04:10:26;98477.81;;;4.12
76541;BMP280;65385;55.772;37.658;2024-03-23T04:11:27;98476.22;;;4.11
76541;BMP280;65385;55.772;37.658;2024-03-23T04:12:27;98477.81;;;4.12
76541;BMP280;65385;55.772;37.658;2024-03-23T04:13:28;98480.94;;;4.14
76541;BMP280;65385;55.772;37.658;2024-03-23T04:14:28;98471.38;;;4.14
76541;BMP280;65385;55.772;37.658;2024-03-23T04:15:29;98479.91;;;4.15
76541;BMP280;65385;55.772;37.658;2024-03-23T04:16:34;98476.03;;;4.17
76541;BMP280;65385;55.772;37.658;2024-03-23T04:17:35;98475.22;;;4.17
76541;BMP280;65385;55.772;37.658;2024-03-23T04:18:36;98470.84;;;4.17
76541;BMP280;65385;55.772;37.658;2024-03-23T04:19:36;98471.41;;;4.19
76541;BMP280;65385;55.772;37.658;2024-03-23T04:20:37;98468.81;;;4.19
76541;BMP280;65385;55.772;37.658;2024-03-23T04:21:38;98471.94;;;4.21
76541;BMP280;65385;55.772;37.658;2024-03-23T04:22:39;98456.97;;;4.23
76541;BMP280;65385;55.772;37.658;2024-03-23T04:23:39;98461.63;;;4.26
76541;BMP280;65385;55.772;37.658;2024-03-23T04:24:40;98464.78;;;4.28
76541;BMP280;65385;55.772;37.658;2024-03-23T04:25:41;98459.06;;;4.26
76541;BMP280;65385;55.772;37.658;2024-03-23T04:26:42;98450.75;;;4.24
76541;BMP280;65385;55.772;37.658;2024-03-23T04:27:43;98455.91;;;4.24
76541;BMP280;65385;55.772;37.658;2024-03-23T04:28:44;98452.53;;;4.24
76541;BMP280;65385;55.772;37.658;2024-03-23T04:29:51;98456.69;;;4.25
76541;BMP280;65385;55.772;37.658;2024-03-23T04:30:52;98449.22;;;4.23
76541;BMP280;65385;55.772;37.658;2024-03-23T04:31:52;98445.84;;;4.23
76541;BMP280;65385;55.772;37.658;2024-03-23T04:32:53;98447.91;;;4.26
76541;BMP280;65385;55.772;37.658;2024-03-23T04:33:54;98443.75;;;4.25
76541;BMP280;65385;55.772;37.658;2024-03-23T04:34:54;98444.03;;;4.23
76541;BMP280;65385;55.772;37.658;2024-03-23T04:35:55;98444.03;;;4.23
76541;BMP280;65385;55.772;37.658;2024-03-23T04:36:56;98438.06;;;4.23
76541;BMP280;65385;55.772;37.658;2024-03-23T04:37:56;98441.19;;;4.25
76541;BMP280;65385;55.772;37.658;2024-03-23T04:38:59;98430.03;;;4.24
76541;BMP280;65385;55.772;37.658;2024-03-23T04:40:01;98439.13;;;4.27
76541;BMP280;65385;55.772;37.658;2024-03-23T04:41:02;98434.75;;;4.27
76541;BMP280;65385;55.772;37.658;2024-03-23T04:42:03;98428.31;;;4.30
76541;BMP280;65385;55.772;37.658;2024-03-23T04:43:03;98434.28;;;4.30
76541;BMP280;65385;55.772;37.658;2024-03-23T04:44:05;98427.03;;;4.32
76541;BMP280;65385;55.772;37.658;2024-03-23T04:45:06;98427.81;;;4.33
76541;BMP280;65385;55.772;37.658;2024-03-23T04:46:07;98435.34;;;4.34
76541;BMP280;65385;55.772;37.658;2024-03-23T04:47:07;98436.63;;;4.37
76541;BMP280;65385;55.772;37.658;2024-03-23T04:48:08;98432.75;;;4.39
76541;BMP280;65385;55.772;37.658;2024-03-23T04:49:08;98427.59;;;4.39
76541;BMP280;65385;55.772;37.658;2024-03-23T04:50:09;98433.84;;;4.43
76541;BMP280;65385;55.772;37.658;2024-03-23T04:51:23;98424.56;;;4.47
76541;BMP280;65385;55.772;37.658;2024-03-23T04:52:24;98428.16;;;4.46
76541;BMP280;65385;55.772;37.658;2024-03-23T04:53:24;98422.22;;;4.46
76541;BMP280;65385;55.772;37.658;2024-03-23T04:54:30;98422.47;;;4.44
76541;BMP280;65385;55.772;37.658;2024-03-23T04:55:32;98424.28;;;4.44
76541;BMP280;65385;55.772;37.658;2024-03-23T04:56:33;98428.44;;;4.45
76541;BMP280;65385;55.772;37.658;2024-03-23T04:57:33;98421.44;;;4.45
76541;BMP280;65385;55.772;37.658;2024-03-23T04:58:34;98416.53;;;4.44
76541;BMP280;65385;55.772;37.658;2024-03-23T04:59:34;98418.31;;;4.43
76541;BMP280;65385;55.772;37.658;2024-03-23T05:00:35;98419.34;;;4.42
76541;BMP280;65385;55.772;37.658;2024-03-23T05:01:35;98419.34;;;4.42
76541;BMP280;65385;55.772;37.658;2024-03-23T05:02:39;98417.00;;;4.41
76541;BMP280;65385;55.772;37.658;2024-03-23T05:03:39;98421.69;;;4.44
76541;BMP280;65385;55.772;37.658;2024-03-23T05:04:40;98414.72;;;4.44
76541;BMP280;65385;55.772;37.658;2024-03-23T05:05:40;98414.72;;;4.44
76541;BMP280;65385;55.772;37.658;2024-03-23T05:06:41;98418.84;;;4.45
76541;BMP280;65385;55.772;37.658;2024-03-23T05:07:42;98407.47;;;4.46
76541;BMP280;65385;55.772;37.658;2024-03-23T05:08:42;98409.03;;;4.47
76541;BMP280;65385;55.772;37.658;2024-03-23T05:09:43;98407.22;;;4.48
76541;BMP280;65385;55.772;37.658;2024-03-23T05:10:43;98415.00;;;4.48
76541;BMP280;65385;55.772;37.658;2024-03-23T05:11:44;98414.22;;;4.47
76541;BMP280;65385;55.772;37.658;2024-03-23T05:12:45;98408.00;;;4.48
76541;BMP280;65385;55.772;37.658;2024-03-23T05:13:46;98403.16;;;4.52
76541;BMP280;65385;55.772;37.658;2024-03-23T05:14:46;98405.72;;;4.52
76541;BMP280;65385;55.772;37.658;2024-03-23T05:15:53;98404.44;;;4.55
76541;BMP280;65385;55.772;37.658;2024-03-23T05:16:54;98410.38;;;4.50
76541;BMP280;65385;55.772;37.658;2024-03-23T05:17:54;98402.84;;;4.48
76541;BMP280;65385;55.772;37.658;2024-03-23T05:18:55;98405.44;;;4.48
76541;BMP280;65385;55.772;37.658;2024-03-23T05:19:55;98408.25;;;4.47
76541;BMP280;65385;55.772;37.658;2024-03-23T05:20:57;98410.59;;;4.48
76541;BMP280;65385;55.772;37.658;2024-03-23T05:21:57;98407.47;;;4.46
76541;BMP280;65385;55.772;37.658;2024-03-23T05:22:59;98401.50;;;4.46
76541;BMP280;65385;55.772;37.658;2024-03-23T05:24:00;98403.31;;;4.45
76541;BMP280;65385;55.772;37.658;2024-03-23T05:25:01;98400.72;;;4.45
76541;BMP280;65385;55.772;37.658;2024-03-23T05:26:04;98399.97;;;4.45
76541;BMP280;65385;55.772;37.658;2024-03-23T05:27:05;98393.22;;;4.44
76541;BMP280;65385;55.772;37.658;2024-03-23T05:28:06;98393.22;;;4.44
76541;BMP280;65385;55.772;37.658;2024-03-23T05:29:07;98391.91;;;4.41
76541;BMP280;65385;55.772;37.658;2024-03-23T05:30:11;98391.13;;;4.41
76541;BMP280;65385;55.772;37.658;2024-03-23T05:31:12;98386.19;;;4.39
76541;BMP280;65385;55.772;37.658;2024-03-23T05:32:12;98386.19;;;4.39
76541;BMP280;65385;55.772;37.658;2024-03-23T05:33:13;98383.09;;;4.37
76541;BMP280;65385;55.772;37.658;2024-03-23T05:34:14;98382.03;;;4.38
76541;BMP280;65385;55.772;37.658;2024-03-23T05:35:14;98380.50;;;4.37
76541;BMP280;65385;55.772;37.658;2024-03-23T05:36:15;98381.00;;;4.39
76541;BMP280;65385;55.772;37.658;2024-03-23T05:37:15;98374.81;;;4.40
76541;BMP280;65385;55.772;37.658;2024-03-23T05:38:16;98383.34;;;4.41
76541;BMP280;65385;55.772;37.658;2024-03-23T05:39:16;98382.09;;;4.43
76541;BMP280;65385;55.772;37.658;2024-03-23T05:40:18;98372.81;;;4.47
76541;BMP280;65385;55.772;37.658;2024-03-23T05:41:19;98377.97;;;4.47
76541;BMP280;65385;55.772;37.658;2024-03-23T05:42:20;98380.03;;;4.45
76541;BMP280;65385;55.772;37.658;2024-03-23T05:43:21;98382.38;;;4.47
76541;BMP280;65385;55.772;37.658;2024-03-23T05:44:22;98374.63;;;4.47
76541;BMP280;65385;55.772;37.658;2024-03-23T05:45:23;98374.38;;;4.48
76541;BMP280;65385;55.772;37.658;2024-03-23T05:46:23;98379.56;;;4.48
76541;BMP280;65385;55.772;37.658;2024-03-23T05:47:24;98382.38;;;4.47
76541;BMP280;65385;55.772;37.658;2024-03-23T05:48:25;98373.59;;;4.48
76541;BMP280;65385;55.772;37.658;2024-03-23T05:49:27;98368.41;;;4.48
76541;BMP280;65385;55.772;37.658;2024-03-23T05:50:27;98365.59;;;4.49
76541;BMP280;65385;55.772;37.658;2024-03-23T05:51:28;98364.03;;;4.48
76541;BMP280;65385;55.772;37.658;2024-03-23T05:52:28;98364.81;;;4.49
76541;BMP280;65385;55.772;37.658;2024-03-23T05:53:29;98367.94;;;4.51
76541;BMP280;65385;55.772;37.658;2024-03-23T05:54:30;98364.31;;;4.52
76541;BMP280;65385;55.772;37.658;2024-03-23T05:55:31;98365.59;;;4.49
76541;BMP280;65385;55.772;37.658;2024-03-23T05:56:32;98361.44;;;4.48
76541;BMP280;65385;55.772;37.658;2024-03-23T05:57:33;98360.41;;;4.49
76541;BMP280;65385;55.772;37.658;2024-03-23T05:58:33;98356.03;;;4.50
76541;BMP280;65385;55.772;37.658;2024-03-23T05:59:34;98354.75;;;4.53
76541;BMP280;65385;55.772;37.658;2024-03-23T06:00:34;98355.50;;;4.53
76541;BMP280;65385;55.772;37.658;2024-03-23T06:01:35;98355.25;;;4.55
76541;BMP280;65385;55.772;37.658;2024-03-23T06:02:36;98355.00;;;4.56
76541;BMP280;65385;55.772;37.658;2024-03-23T06:03:36;98351.13;;;4.54
76541;BMP280;65385;55.772;37.658;2024-03-23T06:04:37;98351.91;;;4.54
76541;BMP280;65385;55.772;37.658;2024-03-23T06:05:38;98358.09;;;4.53
76541;BMP280;65385;55.772;37.658;2024-03-23T06:06:39;98349.81;;;4.51
76541;BMP280;65385;55.772;37.658;2024-03-23T06:07:40;98347.00;;;4.53
76541;BMP280;65385;55.772;37.658;2024-03-23T06:08:40;98348.00;;;4.52
76541;BMP280;65385;55.772;37.658;2024-03-23T06:09:41;98342.28;;;4.49
76541;BMP280;65385;55.772;37.658;2024-03-23T06:10:42;98349.81;;;4.51
76541;BMP280;65385;55.772;37.658;2024-03-23T06:11:43;98352.91;;;4.53
76541;BMP280;65385;55.772;37.658;2024-03-23T06:12:43;98344.63;;;4.56
76541;BMP280;65385;55.772;37.658;2024-03-23T06:13:44;98353.44;;;4.55
76541;BMP280;65385;55.772;37.658;2024-03-23T06:14:44;98351.63;;;4.56
76541;BMP280;65385;55.772;37.658;2024-03-23T06:15:45;98346.22;;;4.57
76541;BMP280;65385;55.772;37.658;2024-03-23T06:16:46;98346.22;;;4.57
76541;BMP280;65385;55.772;37.658;2024-03-23T06:17:48;98327.31;;;4.57
76541;BMP280;65385;55.772;37.658;2024-03-23T06:18:49;98340.53;;;4.60
76541;BMP280;65385;55.772;37.658;2024-03-23T06:19:50;98338.72;;;4.61
76541;BMP280;65385;55.772;37.658;2024-03-23T06:20:51;98338.69;;;4.56
76541;BMP280;65385;55.772;37.658;2024-03-23T06:21:51;98338.44;;;4.52
76541;BMP280;65385;55.772;37.658;2024-03-23T06:22:52;98340.75;;;4.54
76541;BMP280;65385;55.772;37.658;2024-03-23T06:23:53;98332.22;;;4.53
76541;BMP280;65385;55.772;37.658;2024-03-23T06:24:53;98332.22;;;4.53
76541;BMP280;65385;55.772;37.658;2024-03-23T06:25:54;98330.41;;;4.54
76541;BMP280;65385;55.772;37.658;2024-03-23T06:26:55;98333.00;;;4.54
76541;BMP280;65385;55.772;37.658;2024-03-23T06:27:56;98331.97;;;4.55
76541;BMP280;65385;55.772;37.658;2024-03-23T06:28:58;98339.47;;;4.56
76541;BMP280;65385;55.772;37.658;2024-03-23T06:30:00;98326.78;;;4.55
76541;BMP280;65385;55.772;37.658;2024-03-23T06:31:01;98326.28;;;4.58
76541;BMP280;65385;55.772;37.658;2024-03-23T06:32:01;98324.22;;;4.55
76541;BMP280;65385;55.772;37.658;2024-03-23T06:33:02;98326.78;;;4.55
76541;BMP280;65385;55.772;37.658;2024-03-23T06:34:02;98322.38;;;4.55
76541;BMP280;65385;55.772;37.658;2024-03-23T06:35:03;98324.72;;;4.57
76541;BMP280;65385;55.772;37.658;2024-03-23T06:36:11;98320.31;;;4.57
76541;BMP280;65385;55.772;37.658;2024-03-23T06:37:12;98331.47;;;4.58
76541;BMP280;65385;55.772;37.658;2024-03-23T06:38:13;98326.28;;;4.58
76541;BMP280;65385;55.772;37.658;2024-03-23T06:39:13;98326.28;;;4.58
76541;BMP280;65385;55.772;37.658;2024-03-23T06:40:15;98326.28;;;4.58
76541;BMP280;65385;55.772;37.658;2024-03-23T06:41:17;98318.00;;;4.61
76541;BMP280;65385;55.772;37.658;2024-03-23T06:42:17;98321.66;;;4.60
76541;BMP280;65385;55.772;37.658;2024-03-23T06:43:18;98320.59;;;4.61